• Join FlightAware (Why Join?)
  • Login
  • US Flag 
08:26AM EDT


 

Airport Tracker/Info


-or-


 

Live Flight TrackerFlight Track Log ✈ JBU1329 ✈ 22-May-2013 ✈ KBOS - KBWI

Flight Track Log - Related Links

Times and Time Zones

All times are in EDT time to prevent confusion due to time zone crossing. See the JBU1329 flight status page for this flight to view local times or setup timezone preferences in your user account.

Time Position Orientation Groundspeed Altitude Reporting Facility
EDT Latitude Longitude Course Direction KTS MPH feet Rate Location/Type
10:24AM 42.3500 -71.0167 262° West 165 190 500  Level KA90
10:26AM 42.3225 -70.8508 103° East 242 278 5,700 2,520 Climbing Boston Center
10:27AM 42.2805 -70.7459 228° Southwest  Level FlightAware Approximate
10:27AM 42.3169 -70.7497 94° East 255 293 8,900  Level Boston Center
10:28AM 42.2180 -70.8526 240° Southwest  Level FlightAware Approximate
10:28AM 42.2353 -70.7267 168° South 218 251 11,300  Level Boston Center
10:29AM 42.1824 -70.9765 262° West  Level FlightAware Approximate
10:29AM 42.1908 -70.8261 239° Southwest 191 220 13,500  Level Boston Center
10:30AM 42.1739 -70.9497 260° West 281 323 15,500 2,040 Climbing Boston Center
10:31AM 42.1586 -71.0706 260° West 346 398 17,600 1,920 Climbing Boston Center
10:32AM 42.1439 -71.2250 263° West 373 429 19,400 1,800 Climbing Boston Center
10:33AM 42.1264 -71.3681 261° West 393 452 21,300 1,740 Climbing Boston Center
10:34AM 42.1069 -71.5167 260° West 393 452 22,900 900 Climbing Boston Center
10:35AM 42.0831 -71.6625 258° West 393 452 23,200 900 Climbing Boston Center
10:36AM 42.0611 -71.8136 259° West 404 465 24,800 1,440 Climbing Boston Center
10:37AM 42.0408 -71.9706 260° West 415 478 26,100 1,200 Climbing Boston Center
10:38AM 41.9894 -72.1161 245° Southwest 426 490 27,200 1,020 Climbing Boston Center
10:39AM 41.9231 -72.2558 237° Southwest 432 497 28,200 900 Climbing Boston Center
10:40AM 41.8544 -72.3983 237° Southwest 444 511 29,100 960 Climbing Boston Center
10:41AM 41.7856 -72.5403 237° Southwest 456 525 30,200 960 Climbing Boston Center
10:42AM 41.7311 -72.6569 238° Southwest 461 531 31,100 900 Climbing Boston Center
10:43AM 41.6494 -72.8236 237° Southwest 461 531 32,000 420 Climbing Boston Center
10:44AM 41.5822 -72.9647 238° Southwest 461 531 32,000  Level Boston Center
10:45AM 41.5169 -73.1056 238° Southwest 461 531 32,000  Level Boston Center
10:46AM 41.4536 -73.2350 237° Southwest 456 525 32,000  Level Boston Center
10:47AM 41.3858 -73.3725 237° Southwest 456 525 32,000  Level Boston Center
10:49AM 41.2236 -73.6814 231° Southwest 476 548 32,000  Level New York Center
10:50AM 41.3109 -73.4948 231° Southwest  Level FlightAware Approximate
10:50AM 41.1453 -73.8131 232° Southwest 463 533 32,000  Level New York Center
10:51AM 41.0692 -73.9417 232° Southwest 457 526 32,000  Level New York Center
10:52AM 40.9883 -74.0753 231° Southwest 462 532 32,000 -720 Level New York Center
10:53AM 40.9078 -74.2003 230° Southwest 462 532 30,600 -1,800 Descending New York Center
10:54AM 40.8286 -74.3336 232° Southwest 462 532 28,400 -1,320 Descending New York Center
10:55AM 40.7517 -74.4664 233° Southwest 462 532 28,000 -240 Descending New York Center
10:56AM 40.6725 -74.5961 231° Southwest 462 532 28,000  Level New York Center
10:57AM 40.5978 -74.7178 231° Southwest 461 531 28,000 -480 Level New York Center
10:58AM 40.5144 -74.8411 228° Southwest 466 536 27,100 -1,320 Descending New York Center
10:59AM 40.4289 -74.9617 227° Southwest 461 531 25,400 -1,740 Descending New York Center
11:00AM 40.3456 -75.0764 226° Southwest 451 519 23,600 -1,800 Descending New York Center
11:01AM 40.2661 -75.1911 228° Southwest 446 513 21,800 -1,800 Descending New York Center
11:02AM 40.1889 -75.3031 228° Southwest 435 501 20,000 -1,440 Descending New York Center
11:03AM 40.1011 -75.4194 225° Southwest 421 484 19,000 -540 Descending New York Center
11:04AM 40.0328 -75.5153 227° Southwest 411 473 19,000 -300 Level New York Center
11:05AM 39.9467 -75.6311 226° Southwest 411 473 18,500 -840 Descending New York Center
11:06AM 39.8861 -75.7325 232° Southwest 405 466 17,400 -1,200 Descending New York Center
11:07AM 39.8225 -75.8550 236° Southwest 387 445 16,100 -1,200 Descending New York Center
11:08AM 39.7681 -75.9564 235° Southwest 387 445 15,000 -1,320 Descending New York Center
11:10AM 39.6500 -76.2000 238° Southwest 315 362 12,000 -1,380 Descending Potomac TRACON
11:11AM 39.6167 -76.2833 243° Southwest 276 318 10,700 -1,500 Descending Potomac TRACON
11:13AM 39.6000 -76.3833 258° West 272 313 9,000 -1,680 Descending Potomac TRACON
11:14AM 39.5667 -76.4667 243° Southwest 267 307 7,400 -1,500 Descending Potomac TRACON
11:15AM 39.5000 -76.4833 191° South 277 319 6,000 -1,260 Descending Potomac TRACON
11:16AM 39.4167 -76.4833 180° South 279 321 4,900 -1,020 Descending Potomac TRACON
11:17AM 39.3500 -76.4833 180° South 275 316 4,000 -660 Descending Potomac TRACON
11:18AM 39.2667 -76.4667 171° South 272 313 3,600 -540 Descending Potomac TRACON
11:19AM 39.2000 -76.4667 180° South 268 308 3,000 -420 Descending Potomac TRACON
11:20AM 39.1333 -76.4667 180° South 192 221 2,800 -540 Descending Potomac TRACON
11:21AM 39.1000 -76.5000 218° Southwest 175 201 2,000 -900 Descending Potomac TRACON